Time;durP1;ratioP1;P1;durP2;ratioP2;P2;SDS_P1;SDS_P2;PMS_P1;PMS_P2;Temp;Humidity;BMP_temperature;BMP_pressure;BME280_temperature;BME280_humidity;BME280_pressure;Samples;Min_cycle;Max_cycle;Signal;HPM_P1;HPM_P2
2023/05/20 00:00:08;;;;;;;13.48;5.40;;;11.20;99.90;;;;;;5059662;28;20137;-57
2023/05/20 00:02:34;;;;;;;14.45;6.20;;;11.30;99.90;;;;;;5078277;28;20041;-58
2023/05/20 00:05:00;;;;;;;12.48;5.20;;;11.30;99.90;;;;;;5076843;28;20060;-58
2023/05/20 00:07:26;;;;;;;11.75;4.70;;;11.30;99.90;;;;;;5060597;28;20033;-57
2023/05/20 00:09:51;;;;;;;15.65;5.35;;;11.30;99.90;;;;;;5076002;28;20375;-58
2023/05/20 00:12:17;;;;;;;18.10;6.45;;;11.40;99.90;;;;;;5078938;28;20048;-58
2023/05/20 00:14:43;;;;;;;11.52;6.13;;;11.20;99.90;;;;;;5058622;28;20131;-57
2023/05/20 00:17:08;;;;;;;14.65;5.75;;;11.30;99.90;;;;;;5060140;28;20051;-58
2023/05/20 00:19:34;;;;;;;15.23;5.93;;;11.20;99.90;;;;;;5078098;28;20048;-58
2023/05/20 00:22:00;;;;;;;15.80;5.65;;;11.30;99.90;;;;;;5077129;28;20037;-58
2023/05/20 00:24:26;;;;;;;13.95;5.45;;;11.20;99.90;;;;;;5078273;28;20120;-58
2023/05/20 00:26:52;;;;;;;17.30;6.45;;;11.20;99.90;;;;;;5076376;28;20048;-58
2023/05/20 00:29:19;;;;;;;12.63;5.50;;;11.00;99.90;;;;;;5078459;28;20048;-61
2023/05/20 00:31:45;;;;;;;14.20;5.88;;;11.10;99.90;;;;;;5076457;28;20055;-58
2023/05/20 00:34:11;;;;;;;16.05;6.15;;;11.00;99.90;;;;;;5078233;28;20049;-58
2023/05/20 00:36:36;;;;;;;15.70;6.25;;;11.10;99.90;;;;;;5077552;28;20045;-58
2023/05/20 00:39:02;;;;;;;13.68;5.65;;;11.00;99.90;;;;;;5077227;28;20045;-58
2023/05/20 00:41:28;;;;;;;13.60;5.78;;;11.00;99.90;;;;;;5078053;28;20036;-57
2023/05/20 00:43:54;;;;;;;13.73;5.78;;;10.90;99.90;;;;;;5076270;28;20095;-58
2023/05/20 00:46:21;;;;;;;17.67;5.80;;;10.70;99.90;;;;;;5078391;28;20047;-57
2023/05/20 00:48:47;;;;;;;12.35;5.40;;;10.70;99.90;;;;;;5076370;28;20091;-58
2023/05/20 00:51:13;;;;;;;16.27;5.85;;;10.70;99.90;;;;;;5060162;28;20526;-58
2023/05/20 00:53:40;;;;;;;14.57;5.55;;;10.70;99.90;;;;;;5077371;28;20447;-58
2023/05/20 00:56:07;;;;;;;13.35;6.25;;;10.70;99.90;;;;;;5077007;28;20075;-57
2023/05/20 00:58:35;;;;;;;12.95;5.80;;;10.80;99.90;;;;;;5077675;28;20063;-58
2023/05/20 01:01:01;;;;;;;16.08;5.88;;;10.80;99.90;;;;;;5076024;28;20079;-58
2023/05/20 01:03:28;;;;;;;15.15;6.20;;;10.80;99.90;;;;;;5078292;28;20036;-57
2023/05/20 01:05:54;;;;;;;16.65;6.38;;;10.80;99.90;;;;;;5076420;28;20045;-58
2023/05/20 01:08:21;;;;;;;16.17;6.50;;;10.80;99.90;;;;;;5078082;28;20419;-58
2023/05/20 01:10:54;;;;;;;13.98;5.72;;;10.80;99.90;;;;;;5076973;28;20033;-58
2023/05/20 01:13:24;;;;;;;16.10;5.88;;;10.80;99.90;;;;;;5076735;28;20032;-58
2023/05/20 01:15:53;;;;;;;16.60;5.90;;;10.90;99.90;;;;;;5077933;28;20040;-58
2023/05/20 01:18:19;;;;;;;15.32;5.80;;;10.80;99.90;;;;;;5075989;28;20048;-58
2023/05/20 01:20:49;;;;;;;12.27;6.25;;;10.90;99.90;;;;;;5062686;28;20066;-58
2023/05/20 01:23:16;;;;;;;12.73;5.25;;;10.90;99.90;;;;;;5079901;28;20045;-58
2023/05/20 01:25:41;;;;;;;12.75;5.75;;;10.80;99.90;;;;;;5081289;28;20048;-58
2023/05/20 01:28:08;;;;;;;11.93;5.35;;;10.80;99.90;;;;;;5080881;28;20083;-57
2023/05/20 01:30:42;;;;;;;14.35;5.70;;;10.80;99.90;;;;;;5079699;28;20102;-58
2023/05/20 01:33:11;;;;;;;12.05;5.70;;;10.80;99.90;;;;;;5081526;28;20053;-58
2023/05/20 01:35:39;;;;;;;14.23;5.38;;;10.70;99.90;;;;;;5079391;28;20097;-58
2023/05/20 01:38:06;;;;;;;17.45;6.68;;;10.90;99.90;;;;;;5081373;28;20056;-57
2023/05/20 01:40:33;;;;;;;13.88;5.70;;;10.80;99.90;;;;;;5080051;28;20114;-58
2023/05/20 01:42:59;;;;;;;14.60;6.05;;;10.70;99.90;;;;;;5080833;28;20045;-58
2023/05/20 01:45:25;;;;;;;13.60;5.65;;;10.70;99.90;;;;;;5080581;28;20047;-57
2023/05/20 01:47:51;;;;;;;11.07;5.25;;;10.50;99.90;;;;;;5079561;28;20041;-58
2023/05/20 01:50:17;;;;;;;12.68;5.97;;;10.60;99.90;;;;;;5081057;28;20100;-58
2023/05/20 01:52:43;;;;;;;10.82;5.38;;;10.40;99.90;;;;;;5078858;28;20037;-57
2023/05/20 01:55:09;;;;;;;14.90;5.95;;;10.50;99.90;;;;;;5081385;28;20049;-57
2023/05/20 01:57:35;;;;;;;12.63;5.65;;;10.50;99.90;;;;;;5079390;28;20112;-57
2023/05/20 02:00:00;;;;;;;13.15;5.70;;;10.40;99.90;;;;;;5080550;28;20028;-58
2023/05/20 02:02:26;;;;;;;10.95;5.80;;;10.50;99.90;;;;;;5080221;28;20063;-57
2023/05/20 02:04:53;;;;;;;10.60;4.93;;;10.40;99.90;;;;;;5079514;28;20096;-56
2023/05/20 02:07:19;;;;;;;14.45;5.43;;;10.40;99.90;;;;;;5080697;28;20067;-58
2023/05/20 02:09:45;;;;;;;11.05;6.05;;;10.30;99.90;;;;;;5079007;28;20052;-58
2023/05/20 02:12:15;;;;;;;11.27;5.82;;;10.30;99.90;;;;;;5080783;28;20251;-57
2023/05/20 02:14:45;;;;;;;13.52;5.32;;;10.20;99.90;;;;;;5061585;28;20125;-57
2023/05/20 02:17:11;;;;;;;10.82;5.65;;;10.30;99.90;;;;;;5080247;28;20055;-57
2023/05/20 02:19:36;;;;;;;12.30;5.20;;;10.20;99.90;;;;;;5079805;28;20044;-58
2023/05/20 02:22:02;;;;;;;13.15;5.55;;;10.30;99.90;;;;;;5079313;28;20074;-58
2023/05/20 02:24:28;;;;;;;13.93;5.40;;;10.30;99.90;;;;;;5080345;28;20040;-58
2023/05/20 02:26:54;;;;;;;11.27;5.25;;;10.30;99.90;;;;;;5078732;28;20404;-58
2023/05/20 02:29:21;;;;;;;9.63;5.43;;;10.20;99.90;;;;;;5080411;28;20040;-58
2023/05/20 02:31:47;;;;;;;11.82;5.55;;;10.30;99.90;;;;;;5077801;28;20091;-58
2023/05/20 02:34:14;;;;;;;13.65;5.35;;;10.30;99.90;;;;;;5079622;28;20056;-57
2023/05/20 02:36:41;;;;;;;10.32;5.25;;;10.30;99.90;;;;;;5079623;28;20047;-58
2023/05/20 02:39:06;;;;;;;14.18;5.93;;;10.40;99.90;;;;;;5078986;28;20064;-58
2023/05/20 02:41:32;;;;;;;13.23;5.22;;;10.30;99.90;;;;;;5079912;28;20157;-57
2023/05/20 02:43:58;;;;;;;12.93;5.55;;;10.30;99.90;;;;;;5078339;28;20041;-58
2023/05/20 02:46:24;;;;;;;14.07;5.55;;;10.40;99.90;;;;;;5080218;28;20059;-58
2023/05/20 02:48:49;;;;;;;11.02;5.60;;;10.40;99.90;;;;;;5078179;28;20040;-58
2023/05/20 02:51:15;;;;;;;11.77;5.25;;;10.20;99.90;;;;;;5079872;28;20444;-58
2023/05/20 02:53:40;;;;;;;9.93;4.50;;;10.20;99.90;;;;;;5078927;28;20071;-57
2023/05/20 02:56:07;;;;;;;12.88;6.00;;;10.20;99.90;;;;;;5078638;28;20091;-57
2023/05/20 02:58:34;;;;;;;12.98;5.10;;;10.10;99.90;;;;;;5079778;28;20048;-58
2023/05/20 03:01:00;;;;;;;10.55;4.85;;;10.20;99.90;;;;;;5077687;28;20051;-58
2023/05/20 03:03:26;;;;;;;10.77;4.80;;;10.20;99.90;;;;;;5079695;28;20587;-58
2023/05/20 03:05:53;;;;;;;9.60;4.30;;;10.10;99.90;;;;;;5077915;28;20440;-56
2023/05/20 03:08:20;;;;;;;8.30;4.25;;;10.30;99.90;;;;;;5079846;28;20453;-58
2023/05/20 03:10:45;;;;;;;17.30;4.95;;;10.20;99.90;;;;;;5078657;28;20118;-58
2023/05/20 03:13:11;;;;;;;10.52;4.55;;;10.20;99.90;;;;;;5060568;28;20048;-58
2023/05/20 03:15:37;;;;;;;10.30;4.95;;;10.20;99.90;;;;;;5079214;28;20078;-57
2023/05/20 03:18:04;;;;;;;10.85;4.38;;;10.20;99.90;;;;;;5077642;28;20052;-58
2023/05/20 03:20:31;;;;;;;9.27;4.10;;;10.10;99.90;;;;;;5079246;28;20064;-58
2023/05/20 03:22:57;;;;;;;9.77;4.22;;;10.10;99.90;;;;;;5077573;28;20059;-58
2023/05/20 03:25:23;;;;;;;11.98;4.38;;;10.00;99.90;;;;;;5079240;28;20052;-58
2023/05/20 03:27:49;;;;;;;10.63;4.10;;;10.10;99.90;;;;;;5060354;28;20044;-57
2023/05/20 03:30:15;;;;;;;9.65;4.28;;;10.10;99.90;;;;;;5077876;28;20626;-58
2023/05/20 03:32:41;;;;;;;8.23;4.30;;;10.10;99.90;;;;;;5078729;28;20515;-58
2023/05/20 03:35:08;;;;;;;7.50;3.33;;;10.10;99.90;;;;;;5076943;28;20068;-58
2023/05/20 03:37:34;;;;;;;9.55;3.83;;;10.10;99.90;;;;;;5079074;28;20048;-58
2023/05/20 03:39:59;;;;;;;9.98;3.58;;;10.00;99.90;;;;;;5077141;28;20126;-58
2023/05/20 03:42:25;;;;;;;8.75;3.55;;;10.10;99.90;;;;;;5079038;28;20040;-57
2023/05/20 03:44:51;;;;;;;10.35;3.35;;;10.10;99.90;;;;;;5077806;28;20051;-58
2023/05/20 03:47:17;;;;;;;9.98;4.30;;;10.10;99.90;;;;;;5077873;28;20041;-58
2023/05/20 03:49:42;;;;;;;10.15;3.90;;;10.00;99.90;;;;;;5078616;28;20063;-58
2023/05/20 03:52:08;;;;;;;9.45;3.55;;;10.00;99.90;;;;;;5077236;28;20074;-58
2023/05/20 03:54:35;;;;;;;8.75;3.40;;;10.00;99.90;;;;;;5060929;28;20492;-58
2023/05/20 03:57:01;;;;;;;10.32;4.38;;;10.00;99.90;;;;;;5076797;28;20109;-58
2023/05/20 03:59:28;;;;;;;10.73;3.30;;;10.10;99.90;;;;;;5078816;28;20088;-58
2023/05/20 04:01:53;;;;;;;8.15;3.05;;;10.10;99.90;;;;;;5077122;28;20044;-57
2023/05/20 04:04:19;;;;;;;6.68;3.10;;;10.00;99.90;;;;;;5078067;28;20815;-58
2023/05/20 04:06:45;;;;;;;7.43;3.25;;;10.10;99.90;;;;;;5078481;28;20055;-58
2023/05/20 04:09:11;;;;;;;9.20;3.85;;;10.10;99.90;;;;;;5059171;28;20055;-58
2023/05/20 04:11:36;;;;;;;6.65;3.22;;;10.10;99.90;;;;;;5078669;28;20037;-57
2023/05/20 04:14:02;;;;;;;7.43;3.22;;;10.20;99.90;;;;;;5076420;28;20092;-57
2023/05/20 04:16:31;;;;;;;6.57;2.65;;;10.10;99.90;;;;;;5078716;28;20178;-57
2023/05/20 04:18:58;;;;;;;11.20;3.33;;;10.20;99.90;;;;;;5076807;28;20098;-58
2023/05/20 04:21:23;;;;;;;12.52;3.22;;;10.20;99.90;;;;;;5078103;28;20048;-58
2023/05/20 04:23:49;;;;;;;6.43;2.72;;;10.30;99.90;;;;;;5078051;28;20047;-57
2023/05/20 04:26:15;;;;;;;8.90;2.70;;;10.30;99.90;;;;;;5076913;28;20062;-58
2023/05/20 04:28:41;;;;;;;8.45;2.90;;;10.30;99.90;;;;;;5078338;28;20055;-58
2023/05/20 04:31:07;;;;;;;8.55;2.80;;;10.30;99.90;;;;;;5075965;28;20048;-58
2023/05/20 04:33:36;;;;;;;8.93;2.65;;;10.50;99.90;;;;;;5078511;28;20063;-58
2023/05/20 04:36:04;;;;;;;7.60;2.55;;;10.50;99.90;;;;;;5076752;28;20044;-58
2023/05/20 04:38:31;;;;;;;6.10;2.80;;;10.60;99.90;;;;;;5078161;28;20048;-57
2023/05/20 04:40:58;;;;;;;7.28;2.92;;;10.60;99.90;;;;;;5078008;28;20048;-58
2023/05/20 04:43:24;;;;;;;5.75;2.42;;;10.70;99.90;;;;;;5076548;28;20045;-58
2023/05/20 04:45:52;;;;;;;6.97;3.00;;;10.70;99.90;;;;;;5078338;28;20037;-58
2023/05/20 04:48:18;;;;;;;7.72;2.50;;;10.70;99.90;;;;;;5076377;28;20411;-58
2023/05/20 04:50:44;;;;;;;9.68;2.67;;;10.80;99.90;;;;;;5078696;28;20043;-58
2023/05/20 04:53:11;;;;;;;7.38;2.17;;;10.80;99.90;;;;;;5058341;28;20675;-58
2023/05/20 04:55:37;;;;;;;6.88;2.65;;;10.90;99.90;;;;;;5080086;28;20067;-58
2023/05/20 04:58:03;;;;;;;7.75;2.25;;;10.90;99.90;;;;;;5063398;28;20070;-57
2023/05/20 05:00:29;;;;;;;6.03;2.70;;;11.00;99.90;;;;;;5080422;28;20080;-58
2023/05/20 05:02:55;;;;;;;6.22;2.47;;;11.00;99.90;;;;;;5063772;28;20049;-58
2023/05/20 05:05:21;;;;;;;6.78;2.47;;;11.00;99.90;;;;;;5079831;28;20045;-58
2023/05/20 05:07:46;;;;;;;7.03;2.28;;;11.00;99.90;;;;;;5082052;28;20055;-57
2023/05/20 05:10:12;;;;;;;7.10;2.35;;;11.10;99.90;;;;;;5080258;28;20044;-56
2023/05/20 05:12:38;;;;;;;5.90;2.03;;;11.10;99.90;;;;;;5080244;28;20056;-56
2023/05/20 05:15:04;;;;;;;4.93;1.95;;;11.20;99.90;;;;;;5081007;28;20100;-56
2023/05/20 05:17:29;;;;;;;10.18;2.50;;;11.10;99.90;;;;;;5080581;28;20067;-56
2023/05/20 05:19:55;;;;;;;7.35;1.80;;;11.10;99.90;;;;;;5081515;28;20052;-56
2023/05/20 05:22:21;;;;;;;5.63;2.35;;;11.10;99.90;;;;;;5079890;28;20067;-56
2023/05/20 05:24:46;;;;;;;6.25;1.98;;;11.20;99.90;;;;;;5081877;28;20124;-56
2023/05/20 05:27:12;;;;;;;7.85;2.10;;;11.20;99.90;;;;;;5079884;28;20056;-56
2023/05/20 05:29:38;;;;;;;8.13;2.30;;;11.20;99.90;;;;;;5081329;28;20036;-56
2023/05/20 05:32:04;;;;;;;7.40;2.20;;;11.30;99.90;;;;;;5080626;28;20522;-56
2023/05/20 05:34:29;;;;;;;7.15;2.20;;;11.40;99.90;;;;;;5093418;28;20108;-56
2023/05/20 05:36:55;;;;;;;7.57;2.00;;;11.70;99.90;;;;;;5101643;28;20407;-56
2023/05/20 05:39:21;;;;;;;8.02;2.40;;;12.00;99.90;;;;;;5099854;28;20047;-56
2023/05/20 05:41:46;;;;;;;5.18;1.73;;;12.20;99.90;;;;;;5083430;28;20057;-57
2023/05/20 05:44:12;;;;;;;4.53;1.90;;;12.40;99.90;;;;;;5099882;28;20513;-56
2023/05/20 05:46:37;;;;;;;6.25;2.00;;;12.50;99.90;;;;;;5101764;28;20410;-56
2023/05/20 05:49:03;;;;;;;6.25;1.80;;;12.70;99.90;;;;;;5100380;28;20089;-57
2023/05/20 05:51:29;;;;;;;7.57;1.88;;;12.80;99.90;;;;;;5100581;28;20096;-56
2023/05/20 05:53:55;;;;;;;5.47;1.90;;;12.80;99.90;;;;;;5101095;28;20055;-56
2023/05/20 05:56:21;;;;;;;4.30;1.50;;;12.90;99.90;;;;;;5099425;28;20040;-57
2023/05/20 05:58:47;;;;;;;6.25;2.00;;;12.90;99.90;;;;;;5101457;28;20040;-56
2023/05/20 06:01:13;;;;;;;7.75;2.72;;;12.90;99.90;;;;;;5099249;28;20119;-57
2023/05/20 06:03:38;;;;;;;5.90;1.77;;;13.00;99.90;;;;;;5101562;28;20534;-56
2023/05/20 06:06:04;;;;;;;4.97;1.50;;;13.10;99.90;;;;;;5098523;28;20032;-56
2023/05/20 06:08:30;;;;;;;4.80;1.55;;;13.10;99.90;;;;;;5100396;28;20130;-56
2023/05/20 06:10:55;;;;;;;6.50;1.60;;;13.10;99.90;;;;;;5100185;28;20052;-56
2023/05/20 06:13:21;;;;;;;4.65;1.50;;;13.10;99.90;;;;;;5099442;28;20059;-56
2023/05/20 06:15:49;;;;;;;5.30;1.58;;;13.10;99.90;;;;;;5101018;28;20035;-57
2023/05/20 06:18:15;;;;;;;7.90;2.83;;;13.10;99.90;;;;;;5099087;28;20137;-57
2023/05/20 06:20:41;;;;;;;5.53;1.60;;;13.10;99.90;;;;;;5101224;28;20059;-57
2023/05/20 06:23:06;;;;;;;5.68;1.65;;;13.20;99.90;;;;;;5080837;28;20044;-56
2023/05/20 06:25:32;;;;;;;5.13;1.88;;;13.20;99.90;;;;;;5100577;28;20044;-56
2023/05/20 06:27:58;;;;;;;5.20;1.63;;;13.30;99.90;;;;;;5099912;28;20126;-56
2023/05/20 06:30:23;;;;;;;5.60;1.73;;;13.40;99.90;;;;;;5099136;28;20044;-55
2023/05/20 06:32:49;;;;;;;5.15;1.50;;;13.40;99.90;;;;;;5100610;28;20040;-57
2023/05/20 06:35:15;;;;;;;4.45;1.60;;;13.50;99.90;;;;;;5080393;28;20055;-53
2023/05/20 06:37:41;;;;;;;3.95;1.23;;;13.60;99.90;;;;;;5100976;28;20109;-56
2023/05/20 06:40:07;;;;;;;4.93;1.67;;;13.60;99.90;;;;;;5080434;28;20050;-57
2023/05/20 06:42:33;;;;;;;3.97;1.30;;;13.60;99.90;;;;;;5100537;28;20100;-57
2023/05/20 06:44:58;;;;;;;4.03;1.73;;;13.70;99.90;;;;;;5099531;28;20040;-56
2023/05/20 06:47:24;;;;;;;4.53;1.48;;;13.70;99.90;;;;;;5099329;28;20507;-57
2023/05/20 06:49:50;;;;;;;4.57;1.63;;;13.70;99.90;;;;;;5100037;28;20044;-57
2023/05/20 06:52:16;;;;;;;6.03;1.80;;;13.80;99.90;;;;;;5098338;28;20051;-56
2023/05/20 06:54:41;;;;;;;5.47;1.55;;;13.70;99.90;;;;;;5100212;28;20059;-57
2023/05/20 06:57:08;;;;;;;4.35;1.50;;;13.90;99.90;;;;;;5098331;28;20048;-56
2023/05/20 06:59:35;;;;;;;6.43;1.85;;;14.00;99.90;;;;;;5100311;28;20404;-56
2023/05/20 07:02:01;;;;;;;5.88;1.60;;;14.00;99.90;;;;;;5098959;28;20055;-56
2023/05/20 07:04:27;;;;;;;4.25;1.50;;;14.10;99.90;;;;;;5080800;28;20040;-56
2023/05/20 07:06:53;;;;;;;8.40;1.67;;;14.20;99.90;;;;;;5099554;28;20048;-57
2023/05/20 07:09:18;;;;;;;6.47;1.65;;;14.30;99.90;;;;;;5098145;28;20039;-56
2023/05/20 07:11:44;;;;;;;6.55;1.67;;;14.40;99.90;;;;;;5099999;28;20039;-55
2023/05/20 07:14:10;;;;;;;5.22;1.73;;;14.40;99.90;;;;;;5098047;28;20047;-56
2023/05/20 07:16:36;;;;;;;4.20;1.38;;;14.50;99.90;;;;;;5100193;28;20040;-57
2023/05/20 07:19:02;;;;;;;7.03;1.80;;;14.30;99.90;;;;;;5098198;28;20044;-57
2023/05/20 07:21:28;;;;;;;5.53;1.73;;;14.40;99.90;;;;;;5098837;28;20582;-57
2023/05/20 07:23:54;;;;;;;6.75;1.67;;;14.50;99.90;;;;;;5099066;28;20048;-58
2023/05/20 07:26:20;;;;;;;6.65;1.75;;;14.50;99.90;;;;;;5097947;28;20044;-57
2023/05/20 07:28:46;;;;;;;6.50;1.52;;;14.60;99.90;;;;;;5099772;28;20044;-58
2023/05/20 07:31:12;;;;;;;6.22;1.50;;;14.80;99.90;;;;;;5097238;28;20036;-57
2023/05/20 07:33:38;;;;;;;3.63;1.45;;;14.90;99.90;;;;;;5099508;28;20255;-58
2023/05/20 07:36:04;;;;;;;6.70;1.58;;;14.90;99.90;;;;;;5097842;28;20059;-58
2023/05/20 07:38:29;;;;;;;5.47;1.83;;;15.00;99.90;;;;;;5098784;28;20048;-57
2023/05/20 07:40:55;;;;;;;6.80;1.80;;;15.00;99.90;;;;;;5098780;28;20063;-57
2023/05/20 07:43:21;;;;;;;5.65;1.73;;;15.20;99.90;;;;;;5097587;28;20036;-58
2023/05/20 07:45:47;;;;;;;6.70;1.70;;;15.20;99.90;;;;;;5099182;28;20097;-58
2023/05/20 07:48:13;;;;;;;5.00;1.85;;;15.20;99.90;;;;;;5097380;28;20040;-58
2023/05/20 07:50:38;;;;;;;4.85;1.75;;;15.30;99.90;;;;;;5099574;28;20067;-57
2023/05/20 07:53:05;;;;;;;4.47;1.48;;;15.30;99.90;;;;;;5097325;28;20051;-58
2023/05/20 07:55:35;;;;;;;5.50;1.80;;;15.40;99.90;;;;;;5098657;28;20040;-58
2023/05/20 07:58:02;;;;;;;4.70;1.60;;;15.50;99.90;;;;;;5098504;28;20055;-57
2023/05/20 08:00:27;;;;;;;5.72;1.73;;;15.50;99.90;;;;;;5097444;28;20055;-58
2023/05/20 08:02:53;;;;;;;5.15;1.50;;;15.60;99.90;;;;;;5080599;28;20052;-57
2023/05/20 08:05:19;;;;;;;4.55;1.70;;;15.70;99.90;;;;;;5097186;28;20069;-58
2023/05/20 08:07:44;;;;;;;4.68;1.55;;;15.80;99.90;;;;;;5098990;28;20071;-58
2023/05/20 08:10:10;;;;;;;4.25;1.52;;;15.70;99.90;;;;;;5097342;28;20040;-58
2023/05/20 08:12:36;;;;;;;4.38;1.30;;;15.80;99.90;;;;;;5098521;28;20115;-58
2023/05/20 08:15:03;;;;;;;7.15;1.58;;;15.80;99.90;;;;;;5098083;28;20399;-57
2023/05/20 08:17:28;;;;;;;6.05;1.55;;;15.90;99.90;;;;;;5097344;28;20048;-57
2023/05/20 08:19:54;;;;;;;5.45;1.60;;;16.00;99.90;;;;;;5098546;28;20050;-57
2023/05/20 08:22:20;;;;;;;7.30;1.90;;;16.00;99.90;;;;;;5096877;28;20052;-58
2023/05/20 08:24:45;;;;;;;5.78;1.63;;;16.00;99.90;;;;;;5099223;28;20473;-58
2023/05/20 08:27:11;;;;;;;4.43;1.30;;;16.10;99.90;;;;;;5097123;28;20040;-57
2023/05/20 08:29:37;;;;;;;4.55;1.83;;;16.20;99.90;;;;;;5097772;28;20406;-57
2023/05/20 08:32:03;;;;;;;5.35;1.77;;;16.30;99.90;;;;;;5097908;28;20040;-57
2023/05/20 08:34:28;;;;;;;5.43;1.48;;;16.30;99.90;;;;;;5097052;28;20047;-58
2023/05/20 08:36:55;;;;;;;5.07;1.42;;;16.40;99.90;;;;;;5098333;28;20426;-57
2023/05/20 08:39:21;;;;;;;4.15;1.60;;;16.50;99.90;;;;;;5096776;28;20247;-57
2023/05/20 08:41:47;;;;;;;4.95;1.58;;;16.50;99.90;;;;;;5098675;28;20108;-58
2023/05/20 08:44:13;;;;;;;4.45;1.40;;;16.50;99.90;;;;;;5096743;28;20051;-58
2023/05/20 08:46:40;;;;;;;4.25;1.50;;;16.50;99.90;;;;;;5080108;28;20090;-58
2023/05/20 08:49:06;;;;;;;5.63;1.45;;;16.60;99.90;;;;;;5079210;28;20531;-57
2023/05/20 08:51:35;;;;;;;4.50;2.03;;;16.70;99.90;;;;;;5097307;28;20051;-58
2023/05/20 08:54:02;;;;;;;4.68;1.60;;;16.60;99.90;;;;;;5098174;28;20071;-57
2023/05/20 08:56:27;;;;;;;10.35;1.60;;;16.80;99.90;;;;;;5078538;28;20055;-57
2023/05/20 08:58:53;;;;;;;5.45;1.60;;;16.90;99.90;;;;;;5098759;28;20047;-58
2023/05/20 09:01:24;;;;;;;5.57;2.00;;;17.00;99.90;;;;;;5096206;28;20491;-57
2023/05/20 09:03:50;;;;;;;4.82;1.35;;;17.10;99.90;;;;;;5097951;28;20059;-57
2023/05/20 09:06:19;;;;;;;4.80;1.40;;;16.90;99.90;;;;;;5097537;28;20071;-57
2023/05/20 09:08:46;;;;;;;6.25;1.50;;;17.00;99.90;;;;;;5097168;28;20047;-58
2023/05/20 09:11:12;;;;;;;4.30;1.30;;;17.00;99.90;;;;;;5080253;28;20054;-58
2023/05/20 09:13:38;;;;;;;5.43;1.55;;;17.10;99.90;;;;;;5096654;28;20081;-57
2023/05/20 09:16:04;;;;;;;4.55;1.50;;;17.30;99.90;;;;;;5098448;28;20081;-58
2023/05/20 09:18:30;;;;;;;6.13;1.60;;;17.20;99.90;;;;;;5096119;28;20059;-57
2023/05/20 09:20:56;;;;;;;3.58;1.23;;;17.20;99.90;;;;;;5098175;28;20051;-58
2023/05/20 09:23:22;;;;;;;7.45;1.50;;;17.20;99.90;;;;;;5097212;28;20161;-57
2023/05/20 09:25:51;;;;;;;6.15;1.95;;;17.20;99.90;;;;;;5097035;28;20040;-58
2023/05/20 09:28:19;;;;;;;4.80;1.50;;;17.20;99.90;;;;;;5097762;28;20040;-57
2023/05/20 09:30:48;;;;;;;4.90;1.50;;;17.20;99.90;;;;;;5096008;28;20052;-58
2023/05/20 09:33:13;;;;;;;4.75;1.42;;;17.20;99.90;;;;;;5098069;28;20048;-58
2023/05/20 09:35:40;;;;;;;5.50;1.65;;;17.20;99.90;;;;;;5096070;28;20060;-58
2023/05/20 09:38:08;;;;;;;5.47;1.73;;;17.40;99.90;;;;;;5098113;28;20106;-57
2023/05/20 09:40:36;;;;;;;6.47;1.75;;;17.40;99.90;;;;;;5097689;28;20066;-57
2023/05/20 09:43:06;;;;;;;8.13;1.77;;;17.50;99.90;;;;;;5100476;28;20052;-57
2023/05/20 09:45:32;;;;;;;6.20;1.60;;;17.50;99.90;;;;;;5101230;28;20089;-57
2023/05/20 09:48:00;;;;;;;7.53;1.70;;;17.60;99.90;;;;;;5099880;28;20396;-58
2023/05/20 09:50:27;;;;;;;6.40;1.90;;;17.50;99.90;;;;;;5101678;28;20078;-57
2023/05/20 09:52:54;;;;;;;7.57;2.03;;;17.50;99.90;;;;;;5099997;28;20047;-57
2023/05/20 09:55:23;;;;;;;9.95;2.30;;;17.50;99.90;;;;;;5101081;28;20495;-57
2023/05/20 09:57:49;;;;;;;6.28;1.98;;;17.60;99.90;;;;;;5100797;28;20036;-57
2023/05/20 10:00:18;;;;;;;6.05;1.85;;;17.70;99.90;;;;;;5099462;28;20066;-57
2023/05/20 10:02:46;;;;;;;5.75;2.08;;;17.80;99.90;;;;;;5101066;28;20085;-58
2023/05/20 10:05:23;;;;;;;4.95;2.00;;;17.80;99.90;;;;;;5099166;28;20499;-58
2023/05/20 10:08:12;;;;;;;8.30;1.88;;;17.90;99.90;;;;;;5101309;28;20048;-58
2023/05/20 10:10:49;;;;;;;7.72;2.20;;;17.70;99.90;;;;;;5100212;28;20133;-57
2023/05/20 10:13:27;;;;;;;8.65;2.60;;;17.70;99.90;;;;;;5099341;28;20052;-58
2023/05/20 10:15:56;;;;;;;8.13;2.13;;;17.80;99.90;;;;;;5101098;28;20129;-58
2023/05/20 10:18:43;;;;;;;7.28;2.38;;;17.80;99.90;;;;;;5099148;28;20068;-58
2023/05/20 10:21:17;;;;;;;6.45;2.35;;;17.70;99.90;;;;;;5100497;28;20059;-57
2023/05/20 10:23:43;;;;;;;6.25;2.08;;;17.60;99.90;;;;;;5100522;28;20051;-57
2023/05/20 10:26:09;;;;;;;9.93;2.00;;;17.80;99.90;;;;;;5099152;28;20044;-58
2023/05/20 10:28:38;;;;;;;6.13;2.53;;;18.00;99.90;;;;;;5100536;28;20104;-57
2023/05/20 10:31:20;;;;;;;6.60;2.22;;;18.00;99.90;;;;;;5098471;28;20111;-58
2023/05/20 10:33:47;;;;;;;6.78;2.28;;;18.10;99.90;;;;;;5100262;28;20112;-58
2023/05/20 10:36:26;;;;;;;10.10;2.20;;;18.10;99.90;;;;;;5099627;28;20637;-57
2023/05/20 10:38:56;;;;;;;9.70;2.65;;;18.10;99.90;;;;;;5099056;28;20096;-58
2023/05/20 10:41:29;;;;;;;7.50;2.35;;;18.00;99.90;;;;;;5100401;28;20054;-58
2023/05/20 10:44:05;;;;;;;8.40;2.17;;;18.20;99.90;;;;;;5098178;28;20036;-57
2023/05/20 10:46:32;;;;;;;8.07;2.95;;;18.10;99.90;;;;;;5100181;28;20090;-58
2023/05/20 10:48:58;;;;;;;6.53;2.50;;;18.20;99.90;;;;;;5098910;28;20087;-57
2023/05/20 10:51:27;;;;;;;7.18;2.20;;;18.30;99.90;;;;;;5099186;28;20085;-58
2023/05/20 10:53:54;;;;;;;7.47;2.22;;;18.30;99.90;;;;;;5099261;28;20103;-58
2023/05/20 10:56:22;;;;;;;9.32;2.92;;;18.30;99.90;;;;;;5098184;28;20050;-57
2023/05/20 10:58:49;;;;;;;8.82;2.92;;;18.20;99.90;;;;;;5100248;28;20044;-58
2023/05/20 11:01:17;;;;;;;9.48;2.70;;;18.20;99.90;;;;;;5097837;28;20051;-58
2023/05/20 11:03:46;;;;;;;7.72;2.47;;;18.20;99.90;;;;;;5099940;28;20111;-57
2023/05/20 11:06:15;;;;;;;7.78;2.47;;;18.20;99.90;;;;;;5099214;28;20040;-57
2023/05/20 11:08:42;;;;;;;10.38;2.80;;;18.20;99.90;;;;;;5098447;28;20048;-58
2023/05/20 11:11:09;;;;;;;8.88;3.13;;;18.10;99.90;;;;;;5099639;28;20137;-58
2023/05/20 11:13:35;;;;;;;8.55;3.05;;;18.00;99.90;;;;;;5098180;28;20048;-57
2023/05/20 11:16:01;;;;;;;7.55;3.20;;;18.20;99.90;;;;;;5100141;28;20546;-57
2023/05/20 11:18:30;;;;;;;7.75;2.50;;;18.20;99.90;;;;;;5097952;28;20044;-58
2023/05/20 11:21:00;;;;;;;7.93;2.90;;;18.00;99.90;;;;;;5099778;28;20414;-57
2023/05/20 11:23:29;;;;;;;6.95;2.50;;;18.20;99.90;;;;;;5098786;28;20056;-58
2023/05/20 11:25:56;;;;;;;10.35;2.60;;;18.50;99.90;;;;;;5098220;28;20112;-58
2023/05/20 11:28:25;;;;;;;7.75;2.67;;;18.50;99.90;;;;;;5099569;28;20102;-58
2023/05/20 11:30:51;;;;;;;8.60;2.88;;;18.50;99.90;;;;;;5097330;28;20044;-58
2023/05/20 11:33:17;;;;;;;9.27;2.97;;;18.50;99.90;;;;;;5099852;28;20040;-58
2023/05/20 11:35:45;;;;;;;9.52;3.40;;;18.60;99.90;;;;;;5079098;28;20056;-58
2023/05/20 11:38:11;;;;;;;7.25;3.00;;;18.50;99.90;;;;;;5099188;28;20064;-58
2023/05/20 11:40:36;;;;;;;8.43;2.85;;;18.60;99.90;;;;;;5098598;28;20044;-58
2023/05/20 11:43:03;;;;;;;9.00;3.08;;;18.50;99.90;;;;;;5098078;28;20038;-58
2023/05/20 11:45:43;;;;;;;9.90;2.78;;;18.50;99.90;;;;;;5099082;28;20043;-57
2023/05/20 11:48:10;;;;;;;8.38;2.90;;;18.50;99.90;;;;;;5097561;28;20556;-57
2023/05/20 11:50:40;;;;;;;10.10;2.80;;;18.70;99.90;;;;;;5099132;28;20039;-58
2023/05/20 11:53:08;;;;;;;9.35;3.20;;;18.50;99.90;;;;;;5097729;28;20110;-57
2023/05/20 11:55:54;;;;;;;10.70;3.33;;;18.50;99.90;;;;;;5098494;28;20543;-57
2023/05/20 11:58:24;;;;;;;10.20;3.08;;;18.10;99.90;;;;;;5098878;28;20028;-57
2023/05/20 12:00:51;;;;;;;7.95;3.75;;;18.30;99.90;;;;;;5096360;28;20481;-57
2023/05/20 12:03:17;;;;;;;9.55;3.80;;;18.20;99.90;;;;;;5099091;28;20044;-57
2023/05/20 12:05:42;;;;;;;10.65;3.25;;;18.60;99.90;;;;;;5096467;28;20416;-57
2023/05/20 12:08:08;;;;;;;9.10;2.95;;;18.70;99.90;;;;;;5098744;28;20055;-58
2023/05/20 12:10:36;;;;;;;7.47;2.88;;;18.80;99.90;;;;;;5098097;28;20044;-58
2023/05/20 12:13:02;;;;;;;8.00;3.40;;;18.90;99.90;;;;;;5097650;28;20572;-58
2023/05/20 12:15:29;;;;;;;7.63;3.40;;;18.90;99.90;;;;;;5098326;28;20063;-58
2023/05/20 12:17:55;;;;;;;8.88;3.25;;;19.00;99.90;;;;;;5096942;28;20040;-58
2023/05/20 12:20:22;;;;;;;10.02;3.25;;;19.00;99.90;;;;;;5099007;28;20043;-57
2023/05/20 12:22:48;;;;;;;7.70;3.40;;;19.20;99.90;;;;;;5078879;28;20068;-58
2023/05/20 12:25:16;;;;;;;6.97;3.17;;;19.20;99.90;;;;;;5080533;28;20130;-56
2023/05/20 12:27:46;;;;;;;11.38;4.05;;;19.10;99.90;;;;;;5098156;28;20063;-58
2023/05/20 12:30:15;;;;;;;8.52;3.58;;;19.30;99.90;;;;;;5097184;28;20036;-58
2023/05/20 12:32:42;;;;;;;10.07;3.70;;;19.00;99.90;;;;;;5098814;28;20067;-58
2023/05/20 12:35:08;;;;;;;11.23;3.90;;;18.70;99.90;;;;;;5096929;28;20601;-57
2023/05/20 12:37:35;;;;;;;7.80;3.65;;;18.40;99.90;;;;;;5098596;28;20055;-58
2023/05/20 12:40:04;;;;;;;10.13;3.75;;;18.50;99.90;;;;;;5096959;28;20483;-58